createdAt,value
2022-10-12T00:01:51.944Z,101580.72
2022-10-12T00:04:18.566Z,101580.22
2022-10-12T00:06:52.639Z,101580.38
2022-10-12T00:09:19.246Z,101575.41
2022-10-12T00:11:45.775Z,101578.09
2022-10-12T00:14:12.298Z,101579.28
2022-10-12T00:16:38.782Z,101578.63
2022-10-12T00:19:05.267Z,101574.47
2022-10-12T00:21:31.835Z,101578.16
2022-10-12T00:24:02.035Z,101579.34
2022-10-12T00:26:29.734Z,101579.84
2022-10-12T00:28:58.918Z,101587.91
2022-10-12T00:31:26.847Z,101583.91
2022-10-12T00:33:54.439Z,101589.63
2022-10-12T00:36:28.111Z,101585.94
2022-10-12T00:38:55.970Z,101584.63
2022-10-12T00:41:25.815Z,101587.50
2022-10-12T00:43:57.893Z,101589.69
2022-10-12T00:46:39.420Z,101587.00
2022-10-12T00:49:22.569Z,101585.28
2022-10-12T00:51:56.557Z,101586.53
2022-10-12T00:54:28.852Z,101592.06
2022-10-12T00:56:58.000Z,101586.75
2022-10-12T00:59:48.631Z,101583.41
2022-10-12T01:02:15.588Z,101592.31
2022-10-12T01:04:43.105Z,101585.47
2022-10-12T01:07:09.641Z,101589.50
2022-10-12T01:09:36.590Z,101592.34
2022-10-12T01:12:05.263Z,101589.03
2022-10-12T01:14:31.800Z,101592.22
2022-10-12T01:17:12.604Z,101589.69
2022-10-12T01:20:35.196Z,101593.16
2022-10-12T01:23:15.473Z,101593.22
2022-10-12T01:25:41.884Z,101586.91
2022-10-12T01:28:40.052Z,101587.53
2022-10-12T01:32:01.984Z,101583.88
2022-10-12T01:34:48.216Z,101591.91
2022-10-12T01:37:53.553Z,101589.41
2022-10-12T01:40:49.660Z,101585.41
2022-10-12T01:43:21.770Z,101578.44
2022-10-12T01:45:48.265Z,101579.28
2022-10-12T01:48:14.981Z,101584.81
2022-10-12T01:50:52.425Z,101578.28
2022-10-12T01:53:36.504Z,101576.53
2022-10-12T01:56:17.187Z,101576.16
2022-10-12T01:58:49.488Z,101578.66
2022-10-12T02:01:32.209Z,101564.13
2022-10-12T02:04:10.410Z,101566.97
2022-10-12T02:06:45.170Z,101560.97
2022-10-12T02:09:27.558Z,101569.00
2022-10-12T02:11:58.577Z,101568.66
2022-10-12T02:14:34.634Z,101565.00
2022-10-12T02:17:05.697Z,101563.00
2022-10-12T02:19:38.407Z,101558.47
2022-10-12T02:22:07.314Z,101556.34
2022-10-12T02:24:40.513Z,101559.00
2022-10-12T02:27:10.812Z,101552.00
2022-10-12T02:29:40.868Z,101557.50
2022-10-12T02:32:22.109Z,101554.34
2022-10-12T02:35:03.926Z,101553.69
2022-10-12T02:37:43.838Z,101544.81
2022-10-12T02:40:21.549Z,101542.66
2022-10-12T02:43:11.836Z,101527.78
2022-10-12T02:45:42.739Z,101536.16
2022-10-12T02:48:13.831Z,101526.81
2022-10-12T02:50:40.619Z,101537.00
2022-10-12T02:53:07.649Z,101528.56
2022-10-12T02:55:38.592Z,101529.31
2022-10-12T02:58:05.139Z,101531.16
2022-10-12T03:00:34.296Z,101525.63
2022-10-12T03:03:00.994Z,101524.69
2022-10-12T03:05:27.511Z,101519.50
2022-10-12T03:07:54.027Z,101523.19
2022-10-12T03:10:20.491Z,101524.34
2022-10-12T03:12:50.199Z,101530.69
2022-10-12T03:15:16.856Z,101523.03
2022-10-12T03:17:43.325Z,101530.03
2022-10-12T03:20:10.317Z,101533.88
2022-10-12T03:22:36.726Z,101534.06
2022-10-12T03:25:03.801Z,101524.38
2022-10-12T03:27:30.253Z,101530.25
2022-10-12T03:29:56.702Z,101529.38
2022-10-12T03:32:23.135Z,101521.34
2022-10-12T03:34:49.613Z,101517.63
2022-10-12T03:37:16.117Z,101525.50
2022-10-12T03:39:42.557Z,101518.28
2022-10-12T03:42:09.040Z,101521.31
2022-10-12T03:44:35.590Z,101519.63
2022-10-12T03:47:02.009Z,101511.16
2022-10-12T03:49:28.781Z,101514.34
2022-10-12T03:51:55.162Z,101506.28
2022-10-12T03:54:21.585Z,101506.31
2022-10-12T03:56:48.049Z,101510.13
2022-10-12T03:59:14.491Z,101504.38
2022-10-12T04:01:41.068Z,101501.47
2022-10-12T04:04:07.626Z,101503.44
2022-10-12T04:06:34.078Z,101507.34
2022-10-12T04:09:00.687Z,101505.16
2022-10-12T04:11:27.202Z,101495.25
2022-10-12T04:13:53.637Z,101497.16
2022-10-12T04:16:20.170Z,101490.31
2022-10-12T04:18:46.609Z,101490.91
2022-10-12T04:21:15.837Z,101490.34
2022-10-12T04:23:42.842Z,101488.88
2022-10-12T04:26:09.517Z,101489.28
2022-10-12T04:28:35.942Z,101480.44
2022-10-12T04:31:02.505Z,101483.81
2022-10-12T04:33:28.986Z,101480.66
2022-10-12T04:35:55.471Z,101490.41
2022-10-12T04:38:21.906Z,101487.47
2022-10-12T04:40:49.009Z,101485.38
2022-10-12T04:43:16.541Z,101485.34
2022-10-12T04:45:43.351Z,101484.50
2022-10-12T04:48:09.815Z,101477.16
2022-10-12T04:50:36.654Z,101480.69
2022-10-12T04:53:03.107Z,101478.16
2022-10-12T04:55:29.541Z,101479.16
2022-10-12T04:57:55.975Z,101475.63
2022-10-12T05:00:22.415Z,101474.34
2022-10-12T05:02:48.867Z,101476.63
2022-10-12T05:05:15.370Z,101483.22
2022-10-12T05:07:41.772Z,101476.38
2022-10-12T05:10:08.883Z,101474.28
2022-10-12T05:12:35.571Z,101480.91
2022-10-12T05:15:02.241Z,101466.78
2022-10-12T05:17:28.729Z,101477.41
2022-10-12T05:19:55.321Z,101471.03
2022-10-12T05:22:22.140Z,101479.06
2022-10-12T05:24:52.868Z,101471.03
2022-10-12T05:27:20.980Z,101475.03
2022-10-12T05:29:47.464Z,101465.59
2022-10-12T05:32:13.951Z,101468.13
2022-10-12T05:34:41.433Z,101463.75
2022-10-12T05:37:07.868Z,101472.00
2022-10-12T05:39:34.289Z,101480.84
2022-10-12T05:42:00.698Z,101478.69
2022-10-12T05:44:27.126Z,101476.47
2022-10-12T05:46:53.558Z,101476.78
2022-10-12T08:49:48.765Z,101466.34
2022-10-12T08:52:26.793Z,101467.50
2022-10-12T08:54:53.551Z,101464.69
2022-10-12T08:57:20.348Z,101461.09
2022-10-12T08:59:47.271Z,101470.53
2022-10-12T09:02:34.319Z,101462.00
2022-10-12T09:05:07.801Z,101464.53
2022-10-12T09:07:45.242Z,101461.00
2022-10-12T09:10:45.104Z,101462.19
2022-10-12T09:13:49.054Z,101462.25
2022-10-12T09:16:23.709Z,101455.31
2022-10-12T09:18:55.154Z,101454.19
2022-10-12T09:21:22.113Z,101455.22
2022-10-12T09:23:49.264Z,101456.81
2022-10-12T09:26:18.714Z,101450.50
2022-10-12T09:28:58.174Z,101456.91
2022-10-12T09:31:51.933Z,101456.09
2022-10-12T09:34:19.659Z,101456.38
2022-10-12T09:36:46.657Z,101453.53
2022-10-12T09:39:19.002Z,101445.81
2022-10-12T09:41:47.629Z,101445.66
2022-10-12T09:44:26.433Z,101446.22
2022-10-12T09:46:57.819Z,101439.50
2022-10-12T09:49:46.217Z,101436.13
2022-10-12T09:52:15.454Z,101428.72
2022-10-12T09:54:48.083Z,101427.88
2022-10-12T09:57:37.163Z,101428.81
2022-10-12T10:00:08.390Z,101422.72
2022-10-12T10:02:48.247Z,101423.28
2022-10-12T10:05:23.454Z,101427.84
2022-10-12T10:07:50.117Z,101424.53
2022-10-12T10:10:23.874Z,101424.22
2022-10-12T10:13:02.964Z,101419.81
2022-10-12T10:15:33.703Z,101414.03
2022-10-12T10:18:06.048Z,101414.19
2022-10-12T10:20:42.312Z,101417.69
2022-10-12T10:23:27.237Z,101411.69
2022-10-12T10:26:15.201Z,101410.72
2022-10-12T10:28:45.004Z,101410.34
2022-10-12T10:31:14.375Z,101405.84
2022-10-12T10:33:41.839Z,101399.41
2022-10-12T10:36:24.437Z,101395.72
2022-10-12T10:38:57.093Z,101401.78
2022-10-12T10:41:31.959Z,101399.09
2022-10-12T10:43:58.740Z,101392.00
2022-10-12T10:46:29.312Z,101403.00
2022-10-12T10:49:08.876Z,101395.41
2022-10-12T10:51:47.743Z,101390.47
2022-10-12T10:54:23.546Z,101390.78
2022-10-12T10:57:01.901Z,101391.03
2022-10-12T10:59:34.177Z,101382.56
2022-10-12T11:02:08.519Z,101389.97
2022-10-12T11:04:44.770Z,101379.03
2022-10-12T11:07:26.957Z,101375.75
2022-10-12T11:09:57.769Z,101374.66
2022-10-12T11:12:31.379Z,101371.06
2022-10-12T11:15:15.011Z,101365.31
2022-10-12T11:17:48.362Z,101363.69
2022-10-12T11:20:19.897Z,101359.84
2022-10-12T11:22:50.609Z,101353.28
2022-10-12T11:25:31.289Z,101356.59
2022-10-12T11:27:58.070Z,101352.22
2022-10-12T11:30:28.551Z,101347.28
2022-10-12T11:33:01.518Z,101346.47
2022-10-12T11:35:34.436Z,101347.28
2022-10-12T11:38:05.314Z,101345.06
2022-10-12T11:43:35.168Z,101334.63
2022-10-12T11:46:07.615Z,101336.25
2022-10-12T11:48:41.719Z,101327.97
2022-10-12T11:51:08.831Z,101330.69
2022-10-12T11:53:46.387Z,101326.25
2022-10-12T11:56:34.952Z,101320.69
2022-10-12T11:59:08.872Z,101312.41
2022-10-12T12:01:50.779Z,101310.66
2022-10-12T12:04:42.791Z,101302.31
2022-10-12T12:07:23.383Z,101308.78
2022-10-12T12:09:51.891Z,101297.72
2022-10-12T12:12:23.655Z,101298.75
2022-10-12T12:14:53.095Z,101294.25
2022-10-12T12:17:19.566Z,101299.50
2022-10-12T12:19:53.232Z,101291.22
2022-10-12T12:22:28.912Z,101290.66
2022-10-12T12:24:56.955Z,101278.28
2022-10-12T12:27:30.456Z,101281.22
2022-10-12T12:29:58.363Z,101273.56
2022-10-12T12:32:27.151Z,101271.38
2022-10-12T12:35:00.238Z,101266.16
2022-10-12T12:37:33.953Z,101266.16
2022-10-12T12:40:00.621Z,101258.56
2022-10-12T12:42:32.299Z,101266.84
2022-10-12T12:45:30.800Z,101260.50
2022-10-12T12:47:57.388Z,101267.59
2022-10-12T12:50:33.569Z,101256.69
2022-10-12T12:53:08.436Z,101248.81
2022-10-12T12:55:46.208Z,101248.28
2022-10-12T12:58:26.425Z,101246.94
2022-10-12T13:01:08.424Z,101254.06
2022-10-12T13:04:12.494Z,101246.69
2022-10-12T13:07:16.361Z,101246.41
2022-10-12T13:09:57.024Z,101246.94
2022-10-12T13:12:23.440Z,101253.56
2022-10-12T13:14:58.812Z,101250.81
2022-10-12T13:17:38.260Z,101248.63
2022-10-12T13:20:17.285Z,101246.53
2022-10-12T13:22:45.756Z,101240.63
2022-10-12T13:25:19.996Z,101241.22
2022-10-12T13:27:49.610Z,101242.94
2022-10-12T13:30:34.827Z,101231.47
2022-10-12T13:33:12.236Z,101235.94
2022-10-12T13:35:45.156Z,101229.69
2022-10-12T13:38:14.411Z,101225.38
2022-10-12T13:40:44.335Z,101219.66
2022-10-12T13:43:50.372Z,101221.28
2022-10-12T13:46:56.867Z,101218.00
2022-10-12T13:49:33.455Z,101222.41
2022-10-12T13:52:02.230Z,101221.38
2022-10-12T13:54:39.083Z,101219.44
2022-10-12T13:57:35.572Z,101221.09
2022-10-12T14:00:28.547Z,101216.44
2022-10-12T14:03:00.649Z,101208.75
2022-10-12T14:05:30.691Z,101210.91
2022-10-12T14:08:02.689Z,101203.81
2022-10-12T14:10:35.728Z,101207.06
2022-10-12T14:13:04.517Z,101198.31
2022-10-12T14:15:34.610Z,101193.41
2022-10-12T14:18:01.207Z,101190.94
2022-10-12T14:20:29.103Z,101187.09
2022-10-12T14:22:58.600Z,101185.44
2022-10-12T14:25:30.556Z,101185.72
2022-10-12T14:28:03.065Z,101184.63
2022-10-12T14:30:32.654Z,101186.75
2022-10-12T14:33:17.450Z,101180.75
2022-10-12T14:35:49.316Z,101182.59
2022-10-12T14:38:41.620Z,101181.78
2022-10-12T14:41:26.833Z,101180.13
2022-10-12T14:44:13.587Z,101178.72
2022-10-12T14:46:49.684Z,101178.94
2022-10-12T14:49:23.507Z,101173.44
2022-10-12T14:51:52.000Z,101173.63
2022-10-12T14:54:18.800Z,101177.72
2022-10-12T14:56:45.373Z,101180.94
2022-10-12T14:59:11.928Z,101183.38
2022-10-12T15:01:41.699Z,101176.78
2022-10-12T15:04:12.649Z,101181.72
2022-10-12T15:06:39.626Z,101178.97
2022-10-12T15:09:06.118Z,101180.34
2022-10-12T15:11:32.632Z,101170.19
2022-10-12T15:13:59.105Z,101172.25
2022-10-12T15:16:27.220Z,101166.69
2022-10-12T15:18:53.729Z,101155.59
2022-10-12T15:21:20.394Z,101161.50
2022-10-12T15:23:47.606Z,101157.53
2022-10-12T15:26:16.573Z,101156.97
2022-10-12T15:28:43.687Z,101138.97
2022-10-12T15:31:17.483Z,101133.22
2022-10-12T15:33:44.834Z,101134.59
2022-10-12T15:36:11.535Z,101131.34
2022-10-12T15:38:38.302Z,101129.19
2022-10-12T15:41:05.051Z,101121.56
2022-10-12T15:43:33.714Z,101116.44
2022-10-12T15:46:02.424Z,101117.81
2022-10-12T15:48:29.183Z,101117.00
2022-10-12T15:50:55.734Z,101111.56
2022-10-12T15:53:25.404Z,101115.13
2022-10-12T15:55:53.344Z,101111.31
2022-10-12T15:58:20.548Z,101108.31
2022-10-12T16:00:47.546Z,101120.91
2022-10-12T16:03:19.200Z,101108.03
2022-10-12T16:05:49.360Z,101104.75
2022-10-12T16:08:15.861Z,101105.00
2022-10-12T16:10:42.744Z,101104.75
2022-10-12T16:13:13.148Z,101105.56
2022-10-12T16:15:40.682Z,101090.00
2022-10-12T16:18:07.244Z,101098.16
2022-10-12T16:20:39.437Z,101093.78
2022-10-12T16:23:12.666Z,101091.88
2022-10-12T16:25:39.151Z,101092.38
2022-10-12T16:28:05.576Z,101090.00
2022-10-12T16:30:32.091Z,101093.28
2022-10-12T16:32:58.565Z,101089.44
2022-10-12T16:35:25.090Z,101092.44
2022-10-12T16:37:51.494Z,101094.34
2022-10-12T16:40:18.146Z,101095.69
2022-10-12T16:42:44.587Z,101089.63
2022-10-12T16:45:11.460Z,101090.44
2022-10-12T16:47:42.826Z,101090.97
2022-10-12T16:50:09.929Z,101102.41
2022-10-12T16:52:36.303Z,101093.09
2022-10-12T16:55:02.768Z,101093.00
2022-10-12T16:57:29.238Z,101098.41
2022-10-12T16:59:55.713Z,101095.38
2022-10-12T17:02:22.233Z,101102.09
2022-10-12T17:04:48.665Z,101094.91
2022-10-12T17:07:15.145Z,101095.38
2022-10-12T17:09:41.673Z,101098.56
2022-10-12T17:12:08.385Z,101094.63
2022-10-12T17:14:34.885Z,101096.94
2022-10-12T17:17:01.380Z,101098.19
2022-10-12T17:19:29.446Z,101103.50
2022-10-12T17:21:59.330Z,101099.28
2022-10-12T17:24:27.341Z,101105.94
2022-10-12T17:26:53.811Z,101100.38
2022-10-12T17:29:21.079Z,101099.19
2022-10-12T17:31:47.859Z,101104.25
2022-10-12T17:34:24.785Z,101108.22
2022-10-12T17:36:51.895Z,101099.97
2022-10-12T17:39:18.455Z,101101.47
2022-10-12T17:41:45.307Z,101098.63
2022-10-12T17:44:12.045Z,101102.25
2022-10-12T17:46:39.033Z,101104.84
2022-10-12T17:49:06.609Z,101107.38
2022-10-12T17:51:33.018Z,101097.44
2022-10-12T17:53:59.784Z,101096.44
2022-10-12T17:56:26.472Z,101090.63
2022-10-12T17:58:53.828Z,101099.19
2022-10-12T18:01:20.414Z,101095.72
2022-10-12T18:03:47.933Z,101095.31
2022-10-12T18:06:18.492Z,101088.91
2022-10-12T18:08:44.899Z,101090.63
2022-10-12T18:11:11.934Z,101084.72
2022-10-12T18:13:38.412Z,101081.34
2022-10-12T18:16:09.766Z,101079.00
2022-10-12T18:18:36.777Z,101079.66
2022-10-12T18:21:07.273Z,101080.59
2022-10-12T18:23:33.853Z,101077.47
2022-10-12T18:26:07.402Z,101078.69
2022-10-12T18:28:34.440Z,101084.50
2022-10-12T18:31:01.454Z,101082.16
2022-10-12T18:33:27.947Z,101076.88
2022-10-12T18:35:54.487Z,101077.81
2022-10-12T18:38:21.033Z,101077.16
2022-10-12T18:40:47.750Z,101085.97
2022-10-12T18:43:14.530Z,101086.06
2022-10-12T18:45:41.763Z,101090.81
2022-10-12T18:48:08.230Z,101091.75
2022-10-12T18:50:35.252Z,101093.97
2022-10-12T18:53:02.614Z,101099.19
2022-10-12T18:55:29.069Z,101096.00
2022-10-12T18:57:55.503Z,101093.53
2022-10-12T19:00:21.993Z,101099.53
2022-10-12T19:02:48.421Z,101099.50
2022-10-12T19:05:14.968Z,101091.13
2022-10-12T19:07:41.460Z,101086.53
2022-10-12T19:10:08.866Z,101087.28
2022-10-12T19:12:35.300Z,101085.97
2022-10-12T19:15:01.725Z,101086.53
2022-10-12T19:17:28.221Z,101093.31
2022-10-12T19:19:54.739Z,101085.16
2022-10-12T19:22:21.235Z,101081.34
2022-10-12T19:24:48.234Z,101080.84
2022-10-12T19:27:14.683Z,101096.75
2022-10-12T19:29:44.938Z,101091.09
2022-10-12T19:32:12.278Z,101097.84
2022-10-12T19:34:38.718Z,101099.16
2022-10-12T19:37:05.098Z,101101.94
2022-10-12T19:39:32.941Z,101103.03
2022-10-12T19:41:59.346Z,101096.91
2022-10-12T19:44:25.760Z,101086.16
2022-10-12T19:46:53.689Z,101093.25
2022-10-12T19:49:20.419Z,101090.84
2022-10-12T19:51:46.950Z,101099.81
2022-10-12T19:54:14.282Z,101095.56
2022-10-12T19:56:41.062Z,101095.63
2022-10-12T19:59:07.551Z,101086.75
2022-10-12T20:01:36.277Z,101085.75
2022-10-12T20:04:08.403Z,101078.31
2022-10-12T20:06:34.863Z,101079.22
2022-10-12T20:09:02.372Z,101081.75
2022-10-12T20:11:29.148Z,101078.88
2022-10-12T20:13:55.701Z,101081.41
2022-10-12T20:16:22.848Z,101076.91
2022-10-12T20:18:49.913Z,101074.03
2022-10-12T20:21:18.994Z,101078.16
2022-10-12T20:23:45.663Z,101080.69
2022-10-12T20:26:14.499Z,101084.88
2022-10-12T20:28:41.186Z,101080.72
2022-10-12T20:31:07.887Z,101074.13
2022-10-12T20:33:35.451Z,101078.09
2022-10-12T20:36:02.135Z,101075.78
2022-10-12T20:38:30.680Z,101076.25
2022-10-12T20:41:04.574Z,101087.03
2022-10-12T20:43:31.036Z,101075.03
2022-10-12T20:46:01.251Z,101077.09
2022-10-12T20:48:31.304Z,101086.25
2022-10-12T20:50:58.012Z,101079.19
2022-10-12T20:53:24.432Z,101076.72
2022-10-12T20:55:51.333Z,101073.41
2022-10-12T20:58:17.711Z,101071.75
2022-10-12T21:00:44.238Z,101069.91
2022-10-12T21:03:10.747Z,101058.50
2022-10-12T21:05:39.724Z,101057.91
2022-10-12T21:08:06.144Z,101065.97
2022-10-12T21:10:34.784Z,101071.59
2022-10-12T21:13:04.322Z,101069.72
2022-10-12T21:15:30.833Z,101058.13
2022-10-12T21:17:57.256Z,101058.13
2022-10-12T21:20:26.020Z,101060.81
2022-10-12T21:22:52.456Z,101053.53
2022-10-12T21:25:18.854Z,101058.94
2022-10-12T21:27:47.736Z,101050.63
2022-10-12T21:30:15.556Z,101056.81
2022-10-12T21:32:41.995Z,101057.69
2022-10-12T21:35:08.484Z,101063.88
2022-10-12T21:37:34.876Z,101064.50
2022-10-12T21:40:01.280Z,101056.41
2022-10-12T21:42:29.046Z,101048.94
2022-10-12T21:44:55.449Z,101053.28
2022-10-12T21:47:21.857Z,101048.50
2022-10-12T21:49:48.325Z,101055.13
2022-10-12T21:52:14.716Z,101055.13
2022-10-12T21:54:41.177Z,101053.63
2022-10-12T21:57:07.624Z,101049.69
2022-10-12T21:59:34.029Z,101052.16
2022-10-12T22:02:00.566Z,101046.31
2022-10-12T22:04:27.534Z,101049.66
2022-10-12T22:06:58.307Z,101043.00
2022-10-12T22:09:26.778Z,101041.72
2022-10-12T22:11:53.817Z,101034.22
2022-10-12T22:14:20.224Z,101035.91
2022-10-12T22:16:46.811Z,101024.88
2022-10-12T22:19:18.633Z,101030.06
2022-10-12T22:21:46.187Z,101025.28
2022-10-12T22:24:12.589Z,101034.19
2022-10-12T22:26:39.134Z,101039.38
2022-10-12T22:29:07.598Z,101032.97
2022-10-12T22:31:34.444Z,101032.97
2022-10-12T22:34:01.135Z,101036.69
2022-10-12T22:36:27.624Z,101034.63
2022-10-12T22:38:54.155Z,101040.00
2022-10-12T22:41:21.639Z,101029.22
2022-10-12T22:43:48.858Z,101032.50
2022-10-12T22:46:15.740Z,101024.41
2022-10-12T22:48:42.292Z,101020.69
2022-10-12T22:51:08.876Z,101027.72
2022-10-12T22:53:36.075Z,101017.97
2022-10-12T22:56:04.272Z,101019.66
2022-10-12T22:58:30.731Z,101017.97
2022-10-12T23:01:07.914Z,101016.31
2022-10-12T23:03:34.735Z,101021.72
2022-10-12T23:06:01.231Z,101013.63
2022-10-12T23:08:28.243Z,101016.78
2022-10-12T23:10:54.937Z,101018.44
2022-10-12T23:13:21.416Z,101016.78
2022-10-12T23:15:47.864Z,101011.38
2022-10-12T23:18:14.940Z,101008.69
2022-10-12T23:20:41.489Z,101006.00
2022-10-12T23:23:08.284Z,101002.25
2022-10-12T23:25:34.719Z,101000.59
2022-10-12T23:28:01.156Z,101002.84
2022-10-12T23:30:27.588Z,100997.44
2022-10-12T23:32:53.997Z,100999.09
2022-10-12T23:35:20.417Z,101003.47
2022-10-12T23:37:49.222Z,101002.44
2022-10-12T23:40:15.712Z,100994.34
2022-10-12T23:42:42.162Z,101001.38
2022-10-12T23:45:11.208Z,101001.38
2022-10-12T23:47:37.701Z,100997.63
2022-10-12T23:50:05.701Z,101001.97
2022-10-12T23:52:32.081Z,100995.78
2022-10-12T23:54:58.532Z,101001.97
2022-10-12T23:57:45.540Z,101000.94
